Time;durP1;ratioP1;P1;durP2;ratioP2;P2;SDS_P1;SDS_P2;PMS_P1;PMS_P2;Temp;Humidity;BMP_temperature;BMP_pressure;BME280_temperature;BME280_humidity;BME280_pressure;Samples;Min_cycle;Max_cycle;Signal;HPM_P1;HPM_P2
2021/08/21 00:00:47;;;;;;;;;;;;;;;13.71;100.00;101162.00;5082149;28;19951;-70
2021/08/21 00:03:13;;;;;;;;;;;;;;;13.71;100.00;101181.09;5071770;28;19924;-68
2021/08/21 00:05:39;;;;;;;;;;;;;;;13.72;100.00;101178.22;5079949;28;19928;-68
2021/08/21 00:08:07;;;;;;;;;;;;;;;13.71;100.00;101175.66;5091445;28;20362;-63
2021/08/21 00:10:34;;;;;;;;;;;;;;;13.70;100.00;101179.38;5076736;28;20019;-64
2021/08/21 00:13:00;;;;;;;;;;;;;;;13.70;100.00;101172.03;5075841;28;19977;-65
2021/08/21 00:15:27;;;;;;;;;;;;;;;13.71;100.00;101172.91;5091235;28;19930;-64
2021/08/21 00:17:54;;;;;;;;;;;;;;;13.68;100.00;101171.31;5087847;28;19928;-64
2021/08/21 00:20:20;;;;;;;;;;;;;;;13.64;100.00;101168.97;5071819;28;19954;-64
2021/08/21 00:22:47;;;;;;;;;;;;;;;13.61;100.00;101171.97;5087640;28;20394;-64
2021/08/21 00:25:15;;;;;;;;;;;;;;;13.56;100.00;101173.25;5091070;28;20427;-64
2021/08/21 00:27:41;;;;;;;;;;;;;;;13.52;100.00;101171.78;5075181;28;20305;-64
2021/08/21 00:30:08;;;;;;;;;;;;;;;13.52;100.00;101176.34;5073902;28;20072;-64
2021/08/21 00:32:35;;;;;;;;;;;;;;;13.50;100.00;101181.09;5065203;28;20011;-64
2021/08/21 00:35:01;;;;;;;;;;;;;;;13.52;100.00;101179.09;5090911;28;19997;-64
2021/08/21 00:37:27;;;;;;;;;;;;;;;13.58;100.00;101185.91;5064795;28;19978;-64
2021/08/21 00:39:54;;;;;;;;;;;;;;;13.60;100.00;101186.63;5053387;28;20511;-64
2021/08/21 00:42:21;;;;;;;;;;;;;;;13.60;100.00;101192.91;5091025;28;20356;-64
2021/08/21 00:44:48;;;;;;;;;;;;;;;13.59;100.00;101191.22;5091101;28;20371;-64
2021/08/21 00:47:15;;;;;;;;;;;;;;;13.55;100.00;101193.34;5072597;28;19925;-64
2021/08/21 00:49:43;;;;;;;;;;;;;;;13.51;100.00;101186.41;5052627;28;19967;-64
2021/08/21 00:52:11;;;;;;;;;;;;;;;13.45;100.00;101188.81;5069571;28;19925;-65
2021/08/21 00:54:39;;;;;;;;;;;;;;;13.35;100.00;101192.28;5075066;28;20388;-65
2021/08/21 00:57:05;;;;;;;;;;;;;;;13.28;100.00;101188.38;5035773;28;20273;-65
2021/08/21 00:59:34;;;;;;;;;;;;;;;13.25;100.00;101193.22;5085078;28;19924;-65
2021/08/21 01:02:01;;;;;;;;;;;;;;;13.20;100.00;101186.28;5072690;28;19928;-64
2021/08/21 01:04:30;;;;;;;;;;;;;;;13.19;100.00;101186.44;5059611;28;20443;-64
2021/08/21 01:06:56;;;;;;;;;;;;;;;13.17;100.00;101189.25;5052787;28;20027;-64
2021/08/21 01:09:23;;;;;;;;;;;;;;;13.19;100.00;101187.28;5076882;28;19935;-64
2021/08/21 01:11:49;;;;;;;;;;;;;;;13.21;100.00;101188.03;5072593;28;20384;-64
2021/08/21 01:14:16;;;;;;;;;;;;;;;13.19;100.00;101189.16;5070896;28;19924;-64
2021/08/21 01:16:43;;;;;;;;;;;;;;;13.18;100.00;101191.00;5081432;28;19959;-64
2021/08/21 01:19:10;;;;;;;;;;;;;;;13.15;100.00;101191.28;5071486;28;19928;-64
2021/08/21 01:21:36;;;;;;;;;;;;;;;13.10;100.00;101193.50;5088260;28;19967;-64
2021/08/21 01:24:04;;;;;;;;;;;;;;;13.04;100.00;101191.28;5071144;28;19930;-64
2021/08/21 01:26:32;;;;;;;;;;;;;;;13.02;100.00;101191.44;5056479;28;19924;-64
2021/08/21 01:29:10;;;;;;;;;;;;;;;13.01;100.00;101186.13;5073696;28;20036;-64
2021/08/21 01:31:51;;;;;;;;;;;;;;;12.91;100.00;101180.59;5072946;28;20310;-64
2021/08/21 01:34:17;;;;;;;;;;;;;;;12.87;100.00;101182.69;5092648;28;19924;-64
2021/08/21 01:36:45;;;;;;;;;;;;;;;12.85;100.00;101184.69;5076258;28;20371;-64
2021/08/21 01:39:30;;;;;;;;;;;;;;;12.79;100.00;101182.47;5086235;28;19924;-64
2021/08/21 01:42:02;;;;;;;;;;;;;;;12.77;100.00;101176.28;5067878;28;19924;-64
2021/08/21 01:44:30;;;;;;;;;;;;;;;12.74;100.00;101179.25;5069213;28;19932;-64
2021/08/21 01:46:56;;;;;;;;;;;;;;;12.72;100.00;101175.81;5073431;28;19925;-63
2021/08/21 01:49:24;;;;;;;;;;;;;;;12.72;100.00;101175.81;5061009;28;19928;-64
2021/08/21 01:51:59;;;;;;;;;;;;;;;12.75;100.00;101178.28;5075624;28;19924;-65
2021/08/21 01:54:26;;;;;;;;;;;;;;;12.72;100.00;101179.41;5071023;28;19931;-65
2021/08/21 01:56:54;;;;;;;;;;;;;;;12.70;100.00;101183.25;5075654;28;20345;-67
2021/08/21 01:59:41;;;;;;;;;;;;;;;12.66;100.00;101184.50;5093687;28;20045;-68
2021/08/21 02:02:13;;;;;;;;;;;;;;;12.58;100.00;101179.66;5075385;28;19924;-68
2021/08/21 02:04:54;;;;;;;;;;;;;;;12.53;100.00;101184.63;5075557;28;19931;-68
2021/08/21 02:07:20;;;;;;;;;;;;;;;12.43;100.00;101186.41;5058523;28;19930;-68
2021/08/21 02:09:46;;;;;;;;;;;;;;;12.34;100.00;101191.56;5073300;28;19971;-68
2021/08/21 02:12:16;;;;;;;;;;;;;;;12.25;100.00;101184.16;5066972;28;19924;-68
2021/08/21 02:14:48;;;;;;;;;;;;;;;12.17;100.00;101192.06;5057905;28;19930;-68
2021/08/21 02:17:14;;;;;;;;;;;;;;;12.10;100.00;101185.41;5087113;28;19924;-68
2021/08/21 02:19:54;;;;;;;;;;;;;;;12.04;100.00;101190.34;5075615;28;20020;-68
2021/08/21 02:22:20;;;;;;;;;;;;;;;12.02;100.00;101189.59;5060367;28;19924;-68
2021/08/21 02:24:52;;;;;;;;;;;;;;;12.04;100.00;101197.66;5055310;28;19924;-68
2021/08/21 02:27:22;;;;;;;;;;;;;;;11.99;100.00;101194.44;5068733;28;20045;-68
2021/08/21 02:29:50;;;;;;;;;;;;;;;11.96;100.00;101186.50;5064121;28;19928;-68
2021/08/21 02:32:16;;;;;;;;;;;;;;;11.88;100.00;101187.09;5073106;28;19928;-68
2021/08/21 02:34:43;;;;;;;;;;;;;;;11.79;100.00;101193.28;5062258;28;19928;-68
2021/08/21 02:37:09;;;;;;;;;;;;;;;11.71;100.00;101191.16;5075114;28;19977;-64
2021/08/21 02:39:35;;;;;;;;;;;;;;;11.63;100.00;101194.47;5059446;28;20019;-64
2021/08/21 02:42:02;;;;;;;;;;;;;;;11.56;100.00;101194.06;5054610;28;20387;-64
2021/08/21 02:44:28;;;;;;;;;;;;;;;11.50;100.00;101197.25;5066464;28;19924;-64
2021/08/21 02:46:56;;;;;;;;;;;;;;;11.43;100.00;101193.31;5073879;28;20264;-64
2021/08/21 02:49:22;;;;;;;;;;;;;;;11.39;100.00;101199.97;5084782;28;19924;-64
2021/08/21 02:51:49;;;;;;;;;;;;;;;11.32;100.00;101196.84;5074914;28;19923;-64
2021/08/21 02:54:15;;;;;;;;;;;;;;;11.28;100.00;101194.50;5064111;28;19970;-64
2021/08/21 02:56:44;;;;;;;;;;;;;;;11.24;100.00;101193.88;5054710;28;19974;-65
2021/08/21 02:59:11;;;;;;;;;;;;;;;11.21;100.00;101191.34;5062712;28;19924;-65
2021/08/21 03:01:38;;;;;;;;;;;;;;;11.15;100.00;101189.13;5065212;28;20015;-64
2021/08/21 03:04:06;;;;;;;;;;;;;;;11.09;100.00;101186.88;5054802;28;19924;-64
2021/08/21 03:06:33;;;;;;;;;;;;;;;11.03;100.00;101186.34;5078392;28;20295;-64
2021/08/21 03:09:00;;;;;;;;;;;;;;;10.98;100.00;101188.56;5061942;28;19925;-65
2021/08/21 03:11:26;;;;;;;;;;;;;;;10.92;100.00;101183.59;5038005;28;19963;-66
2021/08/21 03:14:22;;;;;;;;;;;;;;;10.85;100.00;101185.03;5054546;28;19925;-66
2021/08/21 03:16:49;;;;;;;;;;;;;;;10.80;100.00;101179.94;5062053;28;19931;-65
2021/08/21 03:19:17;;;;;;;;;;;;;;;10.75;100.00;101186.72;5054646;28;19966;-66
2021/08/21 03:21:44;;;;;;;;;;;;;;;10.70;100.00;101185.22;5073069;28;19931;-66
2021/08/21 03:24:12;;;;;;;;;;;;;;;10.64;100.00;101184.81;5074021;28;20391;-66
2021/08/21 03:26:38;;;;;;;;;;;;;;;10.60;100.00;101183.31;5056315;28;19947;-66
2021/08/21 03:29:05;;;;;;;;;;;;;;;10.55;100.00;101187.22;5054173;28;19924;-69
2021/08/21 03:31:32;;;;;;;;;;;;;;;10.53;100.00;101193.75;5069637;28;19924;-69
2021/08/21 03:33:59;;;;;;;;;;;;;;;10.50;100.00;101189.41;5061701;28;20369;-70
2021/08/21 03:36:28;;;;;;;;;;;;;;;10.47;100.00;101197.75;5071562;28;19948;-69
2021/08/21 03:38:55;;;;;;;;;;;;;;;10.45;100.00;101194.31;5054927;28;19935;-69
2021/08/21 03:41:21;;;;;;;;;;;;;;;10.40;100.00;101191.06;5071705;28;19930;-69
2021/08/21 03:44:01;;;;;;;;;;;;;;;10.35;100.00;101199.50;5063127;28;19924;-69
2021/08/21 03:46:30;;;;;;;;;;;;;;;10.32;100.00;101196.16;5074117;28;19924;-69
2021/08/21 03:48:56;;;;;;;;;;;;;;;10.30;100.00;101203.50;5069722;28;19924;-69
2021/08/21 03:51:28;;;;;;;;;;;;;;;10.33;100.00;101208.75;5053561;28;19924;-69
2021/08/21 03:53:55;;;;;;;;;;;;;;;10.27;100.00;101207.31;5062556;28;19989;-69
2021/08/21 03:56:22;;;;;;;;;;;;;;;10.27;100.00;101206.47;5073236;28;19977;-69
2021/08/21 03:58:53;;;;;;;;;;;;;;;10.22;100.00;101209.50;5064548;28;19924;-69
2021/08/21 04:01:20;;;;;;;;;;;;;;;10.19;100.00;101212.44;5051472;28;19924;-69
2021/08/21 04:03:51;;;;;;;;;;;;;;;10.16;100.00;101208.09;5087182;28;20037;-69
2021/08/21 04:06:20;;;;;;;;;;;;;;;10.18;100.00;101213.41;5070579;28;19997;-69
2021/08/21 04:08:48;;;;;;;;;;;;;;;10.15;100.00;101209.06;5072941;28;20005;-69
2021/08/21 04:11:24;;;;;;;;;;;;;;;10.13;100.00;101205.59;5072732;28;20052;-68
2021/08/21 04:14:06;;;;;;;;;;;;;;;10.14;100.00;101217.31;5073506;28;19951;-67
2021/08/21 04:16:32;;;;;;;;;;;;;;;10.11;100.00;101215.69;5058282;28;19970;-67
2021/08/21 04:18:59;;;;;;;;;;;;;;;10.14;100.00;101218.19;5076991;28;19985;-67
2021/08/21 04:21:29;;;;;;;;;;;;;;;10.19;100.00;101226.00;5067340;28;19932;-68
2021/08/21 04:23:56;;;;;;;;;;;;;;;10.26;100.00;101219.16;5073627;28;19983;-68
2021/08/21 04:26:23;;;;;;;;;;;;;;;10.35;100.00;101223.06;5089195;28;19931;-68
2021/08/21 04:28:49;;;;;;;;;;;;;;;10.40;100.00;101229.03;5089016;28;20160;-68
2021/08/21 04:31:15;;;;;;;;;;;;;;;10.48;100.00;101239.34;5070275;28;19928;-68
2021/08/21 04:33:42;;;;;;;;;;;;;;;10.57;100.00;101229.66;5063837;28;20303;-68
2021/08/21 04:36:10;;;;;;;;;;;;;;;10.69;100.00;101235.06;5068522;28;19935;-66
2021/08/21 04:38:39;;;;;;;;;;;;;;;10.77;100.00;101234.50;5061163;28;19924;-66
2021/08/21 04:41:07;;;;;;;;;;;;;;;10.84;100.00;101241.19;5071763;28;19924;-66
2021/08/21 04:43:34;;;;;;;;;;;;;;;10.94;100.00;101238.66;5072847;28;19924;-72
2021/08/21 04:46:03;;;;;;;;;;;;;;;11.02;100.00;101246.22;5070593;28;19932;-72
2021/08/21 04:48:30;;;;;;;;;;;;;;;11.10;100.00;101251.94;5053854;28;20038;-71
2021/08/21 04:50:57;;;;;;;;;;;;;;;11.15;100.00;101249.75;5053383;28;19928;-72
2021/08/21 04:53:24;;;;;;;;;;;;;;;11.19;100.00;101253.13;5054552;28;19967;-72
2021/08/21 04:55:51;;;;;;;;;;;;;;;11.24;100.00;101250.94;5074169;28;20019;-71
2021/08/21 04:58:20;;;;;;;;;;;;;;;11.31;100.00;101254.03;5067229;28;19930;-72
2021/08/21 05:00:48;;;;;;;;;;;;;;;11.41;100.00;101254.22;5063763;28;19986;-72
2021/08/21 05:03:23;;;;;;;;;;;;;;;11.49;100.00;101254.47;5091032;28;19924;-72
2021/08/21 05:05:52;;;;;;;;;;;;;;;11.58;100.00;101259.22;5072763;28;19998;-71
2021/08/21 05:08:19;;;;;;;;;;;;;;;11.73;100.00;101260.75;5076257;28;19924;-72
2021/08/21 05:10:53;;;;;;;;;;;;;;;11.95;100.00;101269.13;5075999;28;20019;-71
2021/08/21 05:13:22;;;;;;;;;;;;;;;12.13;100.00;101264.06;5076055;28;19977;-71
2021/08/21 05:15:48;;;;;;;;;;;;;;;12.19;100.00;101271.75;5076014;28;19924;-71
2021/08/21 05:18:45;;;;;;;;;;;;;;;12.32;100.00;101267.06;5075832;28;20410;-71
2021/08/21 05:21:26;;;;;;;;;;;;;;;12.50;100.00;101267.44;5075831;28;19924;-71
2021/08/21 05:23:53;;;;;;;;;;;;;;;12.69;100.00;101275.00;5075977;28;20531;-71
2021/08/21 05:26:19;;;;;;;;;;;;;;;12.92;100.00;101274.06;5076119;28;19924;-71
2021/08/21 05:28:47;;;;;;;;;;;;;;;13.10;100.00;101272.56;5075417;28;19924;-71
2021/08/21 05:31:13;;;;;;;;;;;;;;;13.25;100.00;101272.28;5075940;28;19931;-71
2021/08/21 05:33:40;;;;;;;;;;;;;;;13.56;100.00;101265.97;5094176;28;20018;-71
2021/08/21 05:36:06;;;;;;;;;;;;;;;13.91;100.00;101269.41;5093812;28;19928;-68
2021/08/21 05:38:32;;;;;;;;;;;;;;;14.20;100.00;101272.31;5093236;28;19928;-68
2021/08/21 05:40:59;;;;;;;;;;;;;;;14.53;100.00;101256.63;5093674;28;19924;-69
2021/08/21 05:43:25;;;;;;;;;;;;;;;15.08;100.00;101249.91;5093264;28;19982;-69
2021/08/21 05:45:53;;;;;;;;;;;;;;;15.69;100.00;101254.25;5093374;28;20409;-68
2021/08/21 05:48:19;;;;;;;;;;;;;;;16.26;100.00;101239.78;5093116;28;20054;-68
2021/08/21 05:50:45;;;;;;;;;;;;;;;16.77;100.00;101237.53;5092818;28;20437;-66
2021/08/21 05:53:12;;;;;;;;;;;;;;;17.14;100.00;101238.47;5093327;28;19924;-67
2021/08/21 05:55:38;;;;;;;;;;;;;;;17.06;100.00;101228.28;5074903;28;20419;-67
2021/08/21 05:58:09;;;;;;;;;;;;;;;17.09;100.00;101236.22;5075065;28;19970;-71
2021/08/21 06:00:38;;;;;;;;;;;;;;;17.37;100.00;101237.00;5074930;28;19963;-70
2021/08/21 06:03:06;;;;;;;;;;;;;;;17.74;100.00;101235.06;5092842;28;19928;-71
2021/08/21 06:05:32;;;;;;;;;;;;;;;18.03;100.00;101240.28;5093218;28;19924;-71
2021/08/21 06:08:03;;;;;;;;;;;;;;;18.31;100.00;101245.63;5092291;28;19989;-70
2021/08/21 06:10:32;;;;;;;;;;;;;;;18.79;100.00;101240.53;5072259;28;19982;-70
2021/08/21 06:13:00;;;;;;;;;;;;;;;18.85;100.00;101245.38;5037932;28;20028;-70
2021/08/21 06:15:26;;;;;;;;;;;;;;;18.80;100.00;101236.75;5089246;28;20407;-71
2021/08/21 06:17:52;;;;;;;;;;;;;;;19.29;100.00;101237.94;5078753;28;20015;-71
2021/08/21 06:20:20;;;;;;;;;;;;;;;19.63;100.00;101237.78;5054921;28;20414;-71
2021/08/21 06:22:46;;;;;;;;;;;;;;;19.39;100.00;101241.41;5073663;28;19970;-71
2021/08/21 06:25:12;;;;;;;;;;;;;;;19.13;100.00;101255.28;5056229;28;19925;-66
2021/08/21 06:27:39;;;;;;;;;;;;;;;18.84;100.00;101264.75;5081398;28;19929;-66
2021/08/21 06:30:07;;;;;;;;;;;;;;;18.55;100.00;101260.53;5076389;28;19924;-66
2021/08/21 06:32:33;;;;;;;;;;;;;;;18.66;100.00;101249.22;5082460;28;19974;-66
2021/08/21 06:34:59;;;;;;;;;;;;;;;18.83;100.00;101250.16;5087415;28;19966;-66
2021/08/21 06:37:27;;;;;;;;;;;;;;;19.28;100.00;101249.97;5082303;28;19928;-67
2021/08/21 06:39:53;;;;;;;;;;;;;;;18.96;100.00;101257.09;5079609;28;20426;-68
2021/08/21 06:42:20;;;;;;;;;;;;;;;18.40;100.00;101258.38;5071848;28;20065;-67
2021/08/21 06:45:06;;;;;;;;;;;;;;;18.28;100.00;101267.06;5056436;28;19950;-67
2021/08/21 06:47:32;;;;;;;;;;;;;;;18.00;100.00;101273.59;5092161;28;20405;-67
2021/08/21 06:49:58;;;;;;;;;;;;;;;17.69;100.00;101274.00;5089941;28;19968;-67
2021/08/21 06:52:26;;;;;;;;;;;;;;;17.31;100.00;101275.16;5076031;28;19956;-69
2021/08/21 06:54:52;;;;;;;;;;;;;;;17.46;100.00;101275.50;5091593;28;20380;-69
2021/08/21 06:57:19;;;;;;;;;;;;;;;18.02;100.00;101281.66;5091598;28;19970;-69
2021/08/21 06:59:45;;;;;;;;;;;;;;;18.74;100.00;101276.75;5091981;28;20007;-69
2021/08/21 07:02:11;;;;;;;;;;;;;;;19.51;100.00;101270.31;5090610;28;19924;-69
2021/08/21 07:04:38;;;;;;;;;;;;;;;20.19;100.00;101271.00;5073270;28;19974;-69
2021/08/21 07:07:04;;;;;;;;;;;;;;;20.65;100.00;101269.50;5091990;28;20435;-69
2021/08/21 07:09:32;;;;;;;;;;;;;;;21.07;100.00;101260.00;5091214;28;20395;-69
2021/08/21 07:11:59;;;;;;;;;;;;;;;21.27;100.00;101262.31;5091424;28;19989;-71
2021/08/21 07:14:26;;;;;;;;;;;;;;;21.83;100.00;101254.69;5091694;28;20337;-71
2021/08/21 07:16:52;;;;;;;;;;;;;;;21.81;100.00;101259.53;5091208;28;20076;-71
2021/08/21 07:19:18;;;;;;;;;;;;;;;21.46;100.00;101256.34;5091536;28;20026;-71
2021/08/21 07:21:44;;;;;;;;;;;;;;;21.62;100.00;101254.50;5091030;28;19952;-72
2021/08/21 07:24:11;;;;;;;;;;;;;;;22.13;100.00;101260.28;5091614;28;19970;-72
2021/08/21 07:26:39;;;;;;;;;;;;;;;22.38;100.00;101255.38;5072923;28;19931;-71
2021/08/21 07:29:06;;;;;;;;;;;;;;;22.93;100.00;101259.72;5090311;28;19997;-72
2021/08/21 07:31:32;;;;;;;;;;;;;;;23.39;100.00;101256.66;5090013;28;19924;-71
2021/08/21 07:33:58;;;;;;;;;;;;;;;23.44;100.00;101259.72;5091136;28;19963;-71
2021/08/21 07:36:25;;;;;;;;;;;;;;;23.67;100.00;101258.66;5091354;28;19977;-71
2021/08/21 07:38:52;;;;;;;;;;;;;;;23.73;100.00;101260.63;5090839;28;20419;-69
2021/08/21 07:41:19;;;;;;;;;;;;;;;23.79;100.00;101254.28;5090880;28;19934;-68
2021/08/21 07:43:46;;;;;;;;;;;;;;;24.07;100.00;101264.56;5090996;28;20415;-71
2021/08/21 07:46:13;;;;;;;;;;;;;;;24.02;100.00;101267.09;5090340;28;19928;-70
2021/08/21 07:48:39;;;;;;;;;;;;;;;23.66;100.00;101263.31;5090781;28;20487;-68
2021/08/21 07:51:06;;;;;;;;;;;;;;;23.69;100.00;101262.94;5090735;28;19963;-68
2021/08/21 07:53:32;;;;;;;;;;;;;;;23.99;100.00;101259.19;5091005;28;19923;-68
2021/08/21 07:55:58;;;;;;;;;;;;;;;24.01;100.00;101260.69;5090914;28;19960;-69
2021/08/21 07:58:25;;;;;;;;;;;;;;;24.66;100.00;101259.66;5090493;28;20004;-68
2021/08/21 08:00:52;;;;;;;;;;;;;;;24.95;100.00;101257.63;5090029;28;20068;-68
2021/08/21 08:03:19;;;;;;;;;;;;;;;25.46;100.00;101256.34;5090287;28;19928;-68
2021/08/21 08:05:45;;;;;;;;;;;;;;;24.57;100.00;101265.34;5091800;28;19928;-72
2021/08/21 08:08:11;;;;;;;;;;;;;;;23.83;100.00;101263.06;5072869;28;20023;-68
2021/08/21 08:10:38;;;;;;;;;;;;;;;23.27;100.00;101274.88;5090346;28;19970;-68
2021/08/21 08:13:04;;;;;;;;;;;;;;;22.82;100.00;101275.78;5090781;28;19952;-67
2021/08/21 08:15:31;;;;;;;;;;;;;;;23.43;100.00;101271.00;5090361;28;19960;-68
2021/08/21 08:17:58;;;;;;;;;;;;;;;24.27;100.00;101270.28;5090759;28;19997;-68
2021/08/21 08:20:26;;;;;;;;;;;;;;;25.03;100.00;101274.16;5090753;28;19986;-68
2021/08/21 08:22:52;;;;;;;;;;;;;;;24.90;100.00;101284.09;5090025;28;20273;-68
2021/08/21 08:25:19;;;;;;;;;;;;;;;24.27;100.00;101280.53;5090737;28;19955;-68
2021/08/21 08:27:46;;;;;;;;;;;;;;;23.93;100.00;101279.38;5089647;28;19993;-68
2021/08/21 08:30:13;;;;;;;;;;;;;;;23.03;100.00;101274.13;5090560;28;19924;-68
2021/08/21 08:32:42;;;;;;;;;;;;;;;23.29;100.00;101267.19;5090899;28;19970;-68
2021/08/21 08:35:10;;;;;;;;;;;;;;;23.06;100.00;101280.13;5090185;28;19928;-68
2021/08/21 08:37:36;;;;;;;;;;;;;;;22.81;100.00;101270.41;5090483;28;20008;-70
2021/08/21 08:40:03;;;;;;;;;;;;;;;22.07;100.00;101281.25;5089860;28;19928;-68
2021/08/21 08:42:31;;;;;;;;;;;;;;;21.65;100.00;101287.31;5093097;28;19989;-68
2021/08/21 08:44:57;;;;;;;;;;;;;;;21.92;100.00;101293.31;5094889;28;20372;-71
2021/08/21 08:47:23;;;;;;;;;;;;;;;21.75;100.00;101279.59;5094097;28;19960;-71
2021/08/21 08:49:50;;;;;;;;;;;;;;;22.13;100.00;101285.16;5094452;28;19959;-71
2021/08/21 08:52:18;;;;;;;;;;;;;;;23.35;100.00;101283.91;5094005;28;19970;-71
2021/08/21 08:54:45;;;;;;;;;;;;;;;24.32;100.00;101280.75;5093991;28;20403;-71
2021/08/21 08:57:16;;;;;;;;;;;;;;;25.12;100.00;101284.00;5093822;28;19953;-71
2021/08/21 08:59:44;;;;;;;;;;;;;;;25.26;100.00;101284.06;5093610;28;19924;-71
2021/08/21 09:02:10;;;;;;;;;;;;;;;25.56;100.00;101279.00;5094282;28;19963;-71
2021/08/21 09:04:36;;;;;;;;;;;;;;;26.28;100.00;101284.84;5093864;28;19924;-72
2021/08/21 09:07:03;;;;;;;;;;;;;;;26.73;100.00;101284.16;5093664;28;20395;-72
2021/08/21 09:09:30;;;;;;;;;;;;;;;26.76;100.00;101288.44;5093893;28;20470;-71
2021/08/21 09:11:57;;;;;;;;;;;;;;;26.96;94.91;101283.63;5093742;28;19959;-72
2021/08/21 09:14:26;;;;;;;;;;;;;;;26.31;99.66;101286.34;5075756;28;19974;-72
2021/08/21 09:16:53;;;;;;;;;;;;;;;26.25;96.55;101285.28;5093180;28;19934;-72
2021/08/21 09:19:23;;;;;;;;;;;;;;;26.60;94.47;101273.03;5094244;28;19928;-72
2021/08/21 09:22:05;;;;;;;;;;;;;;;27.13;91.41;101281.19;5093372;28;20343;-72
2021/08/21 09:24:33;;;;;;;;;;;;;;;27.23;79.64;101280.72;5093551;28;20015;-72
2021/08/21 09:27:19;;;;;;;;;;;;;;;27.01;89.24;101281.03;5093274;28;20172;-72
2021/08/21 09:29:46;;;;;;;;;;;;;;;26.67;93.17;101274.72;5092932;28;19966;-72
2021/08/21 09:32:12;;;;;;;;;;;;;;;25.64;97.67;101277.97;5093452;28;19955;-71
2021/08/21 09:34:38;;;;;;;;;;;;;;;24.96;100.00;101281.56;5074869;28;19953;-71
2021/08/21 09:37:07;;;;;;;;;;;;;;;24.33;100.00;101277.78;5093241;28;20368;-71
2021/08/21 09:39:37;;;;;;;;;;;;;;;23.22;100.00;101278.19;5093620;28;20288;-69
2021/08/21 09:42:05;;;;;;;;;;;;;;;23.35;100.00;101280.28;5093163;28;19964;-69
2021/08/21 09:44:32;;;;;;;;;;;;;;;23.05;100.00;101278.41;5092777;28;19967;-69
2021/08/21 09:47:12;;;;;;;;;;;;;;;24.38;100.00;101266.91;5092425;28;19928;-70
2021/08/21 09:49:39;;;;;;;;;;;;;;;24.37;100.00;101278.22;5092972;28;19967;-69
2021/08/21 09:52:07;;;;;;;;;;;;;;;24.15;100.00;101278.28;5092751;28;19963;-69
2021/08/21 09:54:33;;;;;;;;;;;;;;;23.82;100.00;101276.03;5092081;28;19928;-69
2021/08/21 09:57:01;;;;;;;;;;;;;;;23.01;100.00;101270.66;5093128;28;19989;-69
2021/08/21 09:59:33;;;;;;;;;;;;;;;23.00;100.00;101274.50;5092625;28;19963;-69
2021/08/21 10:02:00;;;;;;;;;;;;;;;22.28;100.00;101276.88;5090226;28;19959;-69
2021/08/21 10:04:26;;;;;;;;;;;;;;;22.18;100.00;101268.00;5089499;28;19924;-69
2021/08/21 10:06:53;;;;;;;;;;;;;;;22.27;100.00;101275.16;5061638;28;20361;-69
2021/08/21 10:09:20;;;;;;;;;;;;;;;22.24;100.00;101270.84;5084991;28;20403;-67
2021/08/21 10:11:46;;;;;;;;;;;;;;;22.13;100.00;101271.34;5083385;28;19924;-67
2021/08/21 10:14:14;;;;;;;;;;;;;;;21.93;100.00;101273.78;5092770;28;20341;-67
2021/08/21 10:16:42;;;;;;;;;;;;;;;22.02;100.00;101280.06;5063278;28;20025;-67
2021/08/21 10:19:09;;;;;;;;;;;;;;;22.08;100.00;101271.88;5072597;28;19928;-68
2021/08/21 10:21:36;;;;;;;;;;;;;;;23.24;100.00;101273.34;5080754;28;19970;-67
2021/08/21 10:24:02;;;;;;;;;;;;;;;23.18;100.00;101271.34;5087565;28;19965;-67
2021/08/21 10:26:30;;;;;;;;;;;;;;;23.62;100.00;101275.84;5084013;28;20343;-67
2021/08/21 10:28:58;;;;;;;;;;;;;;;24.27;100.00;101281.38;5071623;28;20431;-67
2021/08/21 10:31:37;;;;;;;;;;;;;;;23.77;100.00;101275.81;5078393;28;19924;-67
2021/08/21 10:34:04;;;;;;;;;;;;;;;23.33;100.00;101287.91;5092481;28;20023;-68
2021/08/21 10:36:40;;;;;;;;;;;;;;;22.66;100.00;101289.81;5090352;28;19955;-68
2021/08/21 10:39:17;;;;;;;;;;;;;;;22.39;100.00;101284.75;5089201;28;20330;-68
2021/08/21 10:41:44;;;;;;;;;;;;;;;22.10;100.00;101282.78;5073334;28;20022;-68
2021/08/21 10:44:10;;;;;;;;;;;;;;;22.32;100.00;101280.97;5062145;28;20000;-68
2021/08/21 10:46:54;;;;;;;;;;;;;;;22.67;100.00;101281.31;5090360;28;20214;-69
2021/08/21 10:49:40;;;;;;;;;;;;;;;22.69;100.00;101275.59;5083503;28;19924;-69
2021/08/21 10:52:09;;;;;;;;;;;;;;;22.90;100.00;101274.78;5071794;28;19970;-69
2021/08/21 10:54:53;;;;;;;;;;;;;;;22.90;100.00;101272.91;5076886;28;20329;-69
2021/08/21 10:57:26;;;;;;;;;;;;;;;23.15;100.00;101280.91;5071984;28;20054;-69
2021/08/21 10:59:52;;;;;;;;;;;;;;;23.02;100.00;101273.28;5079689;28;20310;-69
2021/08/21 11:02:37;;;;;;;;;;;;;;;23.10;100.00;101280.59;5080286;28;19959;-70
2021/08/21 11:05:05;;;;;;;;;;;;;;;23.18;100.00;101277.75;5090868;28;19982;-69
2021/08/21 11:07:41;;;;;;;;;;;;;;;23.54;100.00;101284.31;5090070;28;19981;-69
2021/08/21 11:10:14;;;;;;;;;;;;;;;23.80;100.00;101277.31;5078104;28;20409;-70
2021/08/21 11:12:43;;;;;;;;;;;;;;;24.09;100.00;101270.75;5087164;28;22553;-69
2021/08/21 11:15:14;;;;;;;;;;;;;;;24.06;100.00;101274.81;5077136;28;20313;-69
2021/08/21 11:17:40;;;;;;;;;;;;;;;24.11;100.00;101276.97;5070828;28;19967;-69
2021/08/21 11:20:22;;;;;;;;;;;;;;;24.33;100.00;101276.91;5083413;28;20468;-68
2021/08/21 11:23:16;;;;;;;;;;;;;;;24.10;100.00;101269.72;5075004;28;20015;-68
2021/08/21 11:25:43;;;;;;;;;;;;;;;23.73;100.00;101269.81;5069557;28;19978;-69
2021/08/21 11:28:13;;;;;;;;;;;;;;;23.70;100.00;101270.22;5084089;28;20456;-69
2021/08/21 11:30:39;;;;;;;;;;;;;;;23.48;100.00;101265.72;5090927;28;20038;-69
2021/08/21 11:33:13;;;;;;;;;;;;;;;24.49;100.00;101257.19;5089544;28;20043;-66
2021/08/21 11:35:45;;;;;;;;;;;;;;;25.01;100.00;101254.91;5080277;28;20292;-67
2021/08/21 11:38:14;;;;;;;;;;;;;;;26.00;95.75;101248.88;5073162;28;19931;-67
2021/08/21 11:40:42;;;;;;;;;;;;;;;26.70;100.00;101245.59;5072000;28;20050;-67
2021/08/21 11:43:09;;;;;;;;;;;;;;;27.45;85.94;101242.25;5085859;28;20316;-67
2021/08/21 11:45:36;;;;;;;;;;;;;;;27.26;85.08;101249.63;5091035;28;19924;-67
2021/08/21 11:48:02;;;;;;;;;;;;;;;28.00;85.88;101244.38;5091008;28;20409;-67
2021/08/21 11:50:31;;;;;;;;;;;;;;;28.49;82.48;101250.16;5091288;28;20019;-67
2021/08/21 11:52:58;;;;;;;;;;;;;;;28.40;86.51;101245.97;5090907;28;19924;-67
2021/08/21 11:55:26;;;;;;;;;;;;;;;27.33;89.89;101242.09;5090608;28;19997;-65
2021/08/21 11:57:53;;;;;;;;;;;;;;;26.33;92.00;101250.81;5090881;28;19985;-65
2021/08/21 12:00:20;;;;;;;;;;;;;;;25.90;97.12;101243.78;5090358;28;19924;-65
2021/08/21 12:02:48;;;;;;;;;;;;;;;26.43;100.00;101251.22;5090462;28;20391;-65
2021/08/21 12:05:14;;;;;;;;;;;;;;;26.77;94.22;101242.81;5090510;28;20353;-65
2021/08/21 12:07:40;;;;;;;;;;;;;;;26.66;91.11;101244.31;5090533;28;20021;-65
2021/08/21 12:10:07;;;;;;;;;;;;;;;26.77;86.47;101246.44;5090652;28;19924;-65
2021/08/21 12:12:36;;;;;;;;;;;;;;;26.78;80.61;101239.81;5090317;28;19974;-64
2021/08/21 12:15:02;;;;;;;;;;;;;;;26.92;89.00;101243.38;5090945;28;20375;-65
2021/08/21 12:17:29;;;;;;;;;;;;;;;26.97;88.41;101237.16;5090176;28;19977;-65
2021/08/21 12:19:56;;;;;;;;;;;;;;;26.97;83.71;101239.94;5071930;28;20517;-65
2021/08/21 12:22:22;;;;;;;;;;;;;;;26.84;83.11;101246.41;5090307;28;19964;-64
2021/08/21 12:24:53;;;;;;;;;;;;;;;26.23;87.28;101249.34;5089731;28;20405;-65
2021/08/21 12:27:23;;;;;;;;;;;;;;;26.65;87.85;101249.00;5088047;28;20372;-65
2021/08/21 12:30:05;;;;;;;;;;;;;;;27.33;83.24;101238.44;5086090;28;19993;-64
2021/08/21 12:32:31;;;;;;;;;;;;;;;27.60;85.52;101244.72;5082521;28;19925;-66
2021/08/21 12:35:07;;;;;;;;;;;;;;;28.05;84.24;101240.97;5070320;28;20462;-66